Weather at Spartanburg Downtown Memorial Airport

Public forecast

Using degrees Fahrenheit for public forecast. Weather courtesy of forecast.io.

Current aviation weather report (METAR) for Spartanburg Downtown Memorial Airport

2024/07/24 23:55 (retrieved 8 minutes ago)

KSPA 242355Z AUTO 20003KT 10SM CLR 29/20 A3016 RMK AO2

Closest aviation forecast (TAF) to Spartanburg Downtown Memorial Airport

Closest forecast is Dobbins Air Reserve Base, 140.3 nm (259.8 km) WSW.

2024/07/24 21:18 Correction (retrieved 3 hours ago)

TAF TAF COR KMGE 242115Z 2421/2603 33010KT 9999 VCTS BKN040CB BKN180 BKN250 QNH3014INS TEMPO 2422/2502 VRB15G25KT 4800 -TSRAGR BR OVC030CB BECMG 2501/2502 19005KT 9999 VCSH FEW015 BKN035 BKN100 OVC200 QNH3019INS BECMG 2504/2505 VRB03KT 9000 BR SCT005 BKN015 OVC090 QNH3014INS BECMG 2509/2510 VRB03KT 2400 BR OVC004 QNH3014INS BECMG 2514/2515 VRB05KT 4800 BR OVC009 QNH3015INS BECMG 2515/2516 27005KT 9000 BR VCSH OVC012 QNH3014INS BECMG 2517/2518 29009KT 9000 -SHRA VCTS BKN025CB OVC100 QNH3011INS BECMG 2519/2520 VRB10G20KT 6000 -TSRA BR OVC020CB QNH3010INS BECMG 2523/2524 30005KT 9000 -SHRA VCTS BKN030CB BKN120 OVC200 QNH3011INS BECMG 2602/2603 VRB03KT 9999 VCSH SCT030 BKN120 BKN200 QNH3012INS TX30/2520Z TN22/2512Z LAST NO AMDS AFT 2503 NEXT 2511